Time;durP1;ratioP1;P1;durP2;ratioP2;P2;SDS_P1;SDS_P2;PMS_P1;PMS_P2;Temp;Humidity;BMP_temperature;BMP_pressure;BME280_temperature;BME280_humidity;BME280_pressure;Samples;Min_cycle;Max_cycle;Signal;HPM_P1;HPM_P2
2022/05/29 00:02:04;;;;;;;0.60;0.10;;;13.40;99.90;;;;;;5092258;28;20463;-71
2022/05/29 00:04:34;;;;;;;0.60;0.10;;;13.40;99.90;;;;;;5092273;28;20448;-71
2022/05/29 00:07:04;;;;;;;0.60;0.10;;;13.40;99.90;;;;;;5093379;28;20459;-71
2022/05/29 00:09:36;;;;;;;0.60;0.10;;;13.30;99.90;;;;;;5093549;28;20472;-70
2022/05/29 00:12:06;;;;;;;0.60;0.10;;;13.30;99.90;;;;;;5093727;28;20499;-69
2022/05/29 00:14:36;;;;;;;0.60;0.10;;;13.30;99.90;;;;;;5092784;28;20456;-70
2022/05/29 00:17:05;;;;;;;0.60;0.10;;;13.30;99.90;;;;;;5093482;28;20466;-70
2022/05/29 00:19:35;;;;;;;0.60;0.10;;;13.30;99.90;;;;;;5093612;28;20467;-69
2022/05/29 00:22:04;;;;;;;0.60;0.10;;;13.30;99.90;;;;;;5096137;28;20508;-71
2022/05/29 00:24:32;;;;;;;0.60;0.10;;;13.30;99.90;;;;;;5096227;28;20547;-69
2022/05/29 00:26:59;;;;;;;0.60;0.10;;;13.30;99.90;;;;;;5095757;28;20550;-69
2022/05/29 00:29:27;;;;;;;0.60;0.10;;;13.20;99.90;;;;;;5096319;28;20461;-69
2022/05/29 00:31:56;;;;;;;0.60;0.10;;;13.20;99.90;;;;;;5096946;28;20480;-70
2022/05/29 00:34:23;;;;;;;0.60;0.10;;;13.20;99.90;;;;;;5096544;28;20445;-71
2022/05/29 00:36:53;;;;;;;0.60;0.10;;;13.10;99.90;;;;;;5097324;28;20477;-71
2022/05/29 00:39:21;;;;;;;0.60;0.17;;;13.00;99.90;;;;;;5095633;28;20464;-70
2022/05/29 00:41:48;;;;;;;0.60;0.10;;;13.10;99.90;;;;;;5093423;28;20441;-69
2022/05/29 00:44:19;;;;;;;0.60;0.10;;;13.00;99.90;;;;;;5092734;28;20455;-69
2022/05/29 00:46:48;;;;;;;0.60;0.10;;;13.00;99.90;;;;;;5092451;28;20443;-70
2022/05/29 00:49:18;;;;;;;0.60;0.10;;;13.00;99.90;;;;;;5093880;28;20465;-70
2022/05/29 00:51:51;;;;;;;0.60;0.10;;;12.90;99.90;;;;;;5094977;28;20484;-71
2022/05/29 00:54:21;;;;;;;0.60;0.10;;;12.90;99.90;;;;;;5096018;28;20459;-69
2022/05/29 00:56:50;;;;;;;0.60;0.10;;;12.90;99.90;;;;;;5094797;28;20447;-70
2022/05/29 00:59:21;;;;;;;0.60;0.10;;;12.80;99.90;;;;;;5096039;28;20802;-70
2022/05/29 01:01:51;;;;;;;0.60;0.10;;;12.80;99.90;;;;;;5099129;28;20461;-71
2022/05/29 01:04:20;;;;;;;0.60;0.10;;;12.80;99.90;;;;;;5097160;28;20461;-71
2022/05/29 01:06:49;;;;;;;0.60;0.10;;;12.80;99.90;;;;;;5098281;28;20451;-71
2022/05/29 01:09:17;;;;;;;0.60;0.10;;;12.80;99.90;;;;;;5096883;28;20974;-71
2022/05/29 01:12:00;;;;;;;0.60;0.10;;;12.90;99.90;;;;;;5099469;28;20451;-70
2022/05/29 01:14:46;;;;;;;0.60;0.10;;;12.90;99.90;;;;;;5097228;28;20461;-69
2022/05/29 01:17:27;;;;;;;0.60;0.10;;;12.90;99.90;;;;;;5094240;28;20588;-69
2022/05/29 01:20:07;;;;;;;0.60;0.10;;;12.80;99.90;;;;;;5092322;28;20573;-70
2022/05/29 01:22:52;;;;;;;0.60;0.20;;;12.80;99.90;;;;;;5092243;28;20545;-69
2022/05/29 01:25:39;;;;;;;0.60;0.20;;;12.80;99.90;;;;;;5091807;28;20448;-70
2022/05/29 01:28:14;;;;;;;0.60;0.20;;;12.70;99.90;;;;;;5090071;28;20494;-69
2022/05/29 01:30:47;;;;;;;0.87;0.87;;;12.70;99.90;;;;;;5091572;28;20504;-72
2022/05/29 01:33:25;;;;;;;0.60;0.10;;;12.70;99.90;;;;;;5070585;28;20505;-70
2022/05/29 01:35:57;;;;;;;0.60;0.10;;;12.70;99.90;;;;;;5085625;28;20469;-69
2022/05/29 01:38:31;;;;;;;0.60;0.10;;;12.70;99.90;;;;;;5091410;28;20549;-72
2022/05/29 01:41:07;;;;;;;0.60;0.10;;;12.70;99.90;;;;;;5091768;28;20448;-69
2022/05/29 01:43:42;;;;;;;0.60;0.20;;;12.70;99.90;;;;;;5091840;28;20951;-69
2022/05/29 01:46:15;;;;;;;0.60;0.10;;;12.60;99.90;;;;;;5091709;28;20440;-70
2022/05/29 01:48:49;;;;;;;0.60;0.10;;;12.60;99.90;;;;;;5090462;28;20521;-68
2022/05/29 01:51:20;;;;;;;0.60;0.10;;;12.60;99.90;;;;;;5090980;28;20428;-70
2022/05/29 01:53:51;;;;;;;0.60;0.10;;;12.60;99.90;;;;;;5090836;28;20557;-71
2022/05/29 01:56:22;;;;;;;0.60;0.10;;;12.50;99.90;;;;;;5091238;28;20434;-70
2022/05/29 01:58:58;;;;;;;0.60;0.10;;;12.50;99.90;;;;;;5091192;28;20467;-70
2022/05/29 02:01:29;;;;;;;0.60;0.10;;;12.50;99.90;;;;;;5090932;28;20536;-71
2022/05/29 02:04:02;;;;;;;0.60;0.10;;;12.50;99.90;;;;;;5090928;28;20441;-70
2022/05/29 02:07:47;;;;;;;0.60;0.10;;;12.40;99.90;;;;;;5090790;28;20524;-70
2022/05/29 02:09:27;;;;;;;0.60;0.10;;;12.40;99.90;;;;;;5091277;28;20471;-69
2022/05/29 02:11:59;;;;;;;0.80;0.80;;;12.40;99.90;;;;;;5091080;28;20445;-68
2022/05/29 02:14:34;;;;;;;0.60;0.10;;;12.40;99.90;;;;;;5091094;28;20481;-69
2022/05/29 02:17:07;;;;;;;0.60;0.20;;;12.40;99.90;;;;;;5090959;28;20436;-69
2022/05/29 02:19:40;;;;;;;0.60;0.10;;;12.30;99.90;;;;;;5091391;28;20492;-69
2022/05/29 02:22:12;;;;;;;0.60;0.10;;;12.20;99.90;;;;;;5091343;28;20535;-68
2022/05/29 02:24:45;;;;;;;0.60;0.10;;;12.20;99.90;;;;;;5091036;28;20449;-68
2022/05/29 02:27:22;;;;;;;0.60;0.10;;;12.10;99.90;;;;;;5090897;28;20440;-70
2022/05/29 02:29:51;;;;;;;0.60;0.10;;;12.10;99.90;;;;;;5091051;28;20456;-69
2022/05/29 02:32:28;;;;;;;0.60;0.10;;;12.00;99.90;;;;;;5092803;28;20472;-69
2022/05/29 02:35:07;;;;;;;0.60;0.10;;;12.00;99.90;;;;;;5094490;28;20787;-69
2022/05/29 02:37:41;;;;;;;0.60;0.10;;;12.00;99.90;;;;;;5093016;28;20444;-71
2022/05/29 02:40:19;;;;;;;0.60;0.10;;;12.00;99.90;;;;;;5094276;28;20475;-70
2022/05/29 02:43:04;;;;;;;0.60;0.10;;;11.90;99.90;;;;;;5091881;28;20425;-69
2022/05/29 02:45:43;;;;;;;0.60;0.10;;;11.90;99.90;;;;;;5094588;28;20471;-69
2022/05/29 02:48:22;;;;;;;0.60;0.10;;;11.80;99.90;;;;;;5094046;28;20958;-70
2022/05/29 02:50:58;;;;;;;0.60;0.20;;;11.80;99.90;;;;;;5094431;28;20447;-68
2022/05/29 02:53:26;;;;;;;0.60;0.10;;;11.80;99.90;;;;;;5073428;28;20484;-70
2022/05/29 02:55:54;;;;;;;0.60;0.10;;;;;;;;;;5090091;28;20440;-71
2022/05/29 02:58:27;;;;;;;0.60;0.10;;;11.80;99.90;;;;;;5088808;28;20465;-70
2022/05/29 03:01:09;;;;;;;0.60;0.13;;;11.80;99.90;;;;;;5094294;28;20440;-69
2022/05/29 03:03:47;;;;;;;0.60;0.10;;;11.80;99.90;;;;;;5094116;28;20441;-70
2022/05/29 03:06:29;;;;;;;0.60;0.10;;;11.80;99.90;;;;;;5077088;28;20432;-69
2022/05/29 03:09:13;;;;;;;0.60;0.10;;;11.80;99.90;;;;;;5093810;28;20472;-69
2022/05/29 03:11:44;;;;;;;0.60;0.10;;;11.80;99.90;;;;;;5094001;28;20531;-69
2022/05/29 03:14:26;;;;;;;0.60;0.10;;;11.70;99.90;;;;;;5090030;28;20983;-70
2022/05/29 03:17:14;;;;;;;0.60;0.10;;;11.70;99.90;;;;;;5093689;28;20476;-69
2022/05/29 03:19:51;;;;;;;0.60;0.10;;;11.70;99.90;;;;;;5091981;28;20472;-68
2022/05/29 03:22:29;;;;;;;0.60;0.20;;;11.70;99.90;;;;;;5079358;28;20520;-69
2022/05/29 03:25:02;;;;;;;0.60;0.10;;;11.70;99.90;;;;;;5095001;28;20444;-70
2022/05/29 03:27:35;;;;;;;0.60;0.10;;;11.60;99.90;;;;;;5091032;28;20460;-70
2022/05/29 03:30:08;;;;;;;0.60;0.10;;;11.70;99.90;;;;;;5094450;28;20479;-70
2022/05/29 03:32:40;;;;;;;0.60;0.10;;;11.60;99.90;;;;;;5094218;28;20468;-69
2022/05/29 03:35:20;;;;;;;0.60;0.10;;;11.60;99.90;;;;;;5090029;28;20515;-69
2022/05/29 03:37:48;;;;;;;0.60;0.10;;;11.60;99.90;;;;;;5093060;28;20455;-70
2022/05/29 03:40:17;;;;;;;0.60;0.10;;;11.60;99.90;;;;;;5089880;28;20449;-72
2022/05/29 03:42:45;;;;;;;0.60;0.23;;;11.50;99.90;;;;;;5089830;28;20432;-71
2022/05/29 03:45:14;;;;;;;0.60;0.10;;;11.50;99.90;;;;;;5092365;28;20441;-69
2022/05/29 03:47:46;;;;;;;0.60;0.10;;;;;;;;;;5092566;28;20523;-68
2022/05/29 03:50:18;;;;;;;0.60;0.10;;;11.50;99.90;;;;;;5072550;28;20458;-70
2022/05/29 03:52:47;;;;;;;0.60;0.10;;;11.50;99.90;;;;;;5081199;28;20429;-69
2022/05/29 03:55:17;;;;;;;0.60;0.10;;;11.50;99.90;;;;;;5090149;28;20495;-68
2022/05/29 03:57:44;;;;;;;0.60;0.10;;;11.50;99.90;;;;;;5092625;28;20540;-68
2022/05/29 04:00:13;;;;;;;0.60;0.10;;;11.50;99.90;;;;;;5089082;28;20476;-70
2022/05/29 04:02:44;;;;;;;0.60;0.10;;;11.40;99.90;;;;;;5093929;28;20469;-69
2022/05/29 04:05:13;;;;;;;0.60;0.10;;;11.40;99.90;;;;;;5093455;28;20436;-69
2022/05/29 04:13:13;;;;;;;0.60;0.10;;;11.40;99.90;;;;;;5093365;28;20444;-70
2022/05/29 04:15:45;;;;;;;0.60;0.10;;;11.40;99.90;;;;;;5092595;28;20445;-71
2022/05/29 04:18:16;;;;;;;0.60;0.10;;;11.40;99.90;;;;;;5075596;28;20548;-69
2022/05/29 04:20:44;;;;;;;0.60;0.10;;;11.40;99.90;;;;;;5092879;28;20440;-69
2022/05/29 04:23:13;;;;;;;0.60;0.10;;;11.50;99.90;;;;;;5090090;28;20978;-69
2022/05/29 04:25:44;;;;;;;0.60;0.10;;;11.50;99.90;;;;;;5092814;28;20831;-70
2022/05/29 04:28:12;;;;;;;0.60;0.10;;;11.50;99.90;;;;;;5087710;28;20453;-69
2022/05/29 04:30:40;;;;;;;0.60;0.10;;;11.50;99.90;;;;;;5092897;28;20441;-70
2022/05/29 04:33:08;;;;;;;0.60;0.10;;;11.40;99.90;;;;;;5092488;28;20448;-70
2022/05/29 04:35:42;;;;;;;0.60;0.10;;;11.40;99.90;;;;;;5094762;28;20480;-70
2022/05/29 04:38:10;;;;;;;0.60;0.10;;;;;;;;;;5109412;28;20441;-70
2022/05/29 04:40:39;;;;;;;0.60;0.10;;;11.40;99.90;;;;;;5092351;28;20517;-70
2022/05/29 04:43:08;;;;;;;0.60;0.10;;;11.30;99.90;;;;;;5091996;28;20449;-70
2022/05/29 04:45:39;;;;;;;0.60;0.20;;;11.40;99.90;;;;;;5088682;28;20444;-69
2022/05/29 04:48:07;;;;;;;0.60;0.10;;;11.30;99.90;;;;;;5090527;28;20436;-69
2022/05/29 04:50:38;;;;;;;0.60;0.10;;;11.30;99.90;;;;;;5092282;28;20436;-69
2022/05/29 04:53:07;;;;;;;0.70;0.47;;;11.20;99.90;;;;;;5093073;28;20441;-69
2022/05/29 04:55:36;;;;;;;0.60;0.10;;;11.30;99.90;;;;;;5089765;28;20508;-70
2022/05/29 04:58:04;;;;;;;0.60;0.10;;;11.30;99.90;;;;;;5089623;28;20818;-69
2022/05/29 05:00:32;;;;;;;0.60;0.10;;;11.30;99.90;;;;;;5091457;28;20451;-69
2022/05/29 05:03:01;;;;;;;0.60;0.10;;;11.30;99.90;;;;;;5089190;28;20867;-70
2022/05/29 05:05:29;;;;;;;0.60;0.10;;;11.40;99.90;;;;;;5090835;28;20868;-69
2022/05/29 05:07:58;;;;;;;0.60;0.10;;;11.40;99.90;;;;;;5090970;28;20476;-70
2022/05/29 05:10:26;;;;;;;0.60;0.10;;;11.40;99.90;;;;;;5088988;28;20449;-69
2022/05/29 05:12:54;;;;;;;0.60;0.10;;;11.50;99.90;;;;;;5091887;28;20437;-69
2022/05/29 05:15:22;;;;;;;0.60;0.10;;;11.50;99.90;;;;;;5090030;28;20477;-69
2022/05/29 05:17:51;;;;;;;0.60;0.10;;;;;;;;;;5090837;28;20444;-69
2022/05/29 05:20:19;;;;;;;0.60;0.10;;;11.50;99.90;;;;;;5088819;28;20448;-69
2022/05/29 05:22:47;;;;;;;0.60;0.10;;;11.60;99.90;;;;;;5089445;28;20451;-69
2022/05/29 05:25:16;;;;;;;0.60;0.10;;;11.60;99.90;;;;;;5090806;28;20903;-70
2022/05/29 05:27:44;;;;;;;0.60;0.10;;;11.60;99.90;;;;;;5090685;28;20451;-73
2022/05/29 05:30:13;;;;;;;0.60;0.10;;;11.50;99.90;;;;;;5087031;28;20477;-70
2022/05/29 05:32:42;;;;;;;0.60;0.10;;;11.70;99.90;;;;;;5091545;28;20463;-68
2022/05/29 05:35:10;;;;;;;0.60;0.10;;;11.70;99.90;;;;;;5088016;28;20473;-69
2022/05/29 05:37:39;;;;;;;0.60;0.10;;;11.80;99.90;;;;;;5089335;28;20487;-70
2022/05/29 05:40:11;;;;;;;0.60;0.10;;;11.80;99.90;;;;;;5088946;28;21052;-70
2022/05/29 05:42:40;;;;;;;0.60;0.10;;;11.90;99.90;;;;;;5083815;28;20456;-70
2022/05/29 05:45:11;;;;;;;0.60;0.10;;;11.90;99.90;;;;;;5090965;28;20855;-71
2022/05/29 05:47:39;;;;;;;0.60;0.10;;;12.00;99.90;;;;;;5090880;28;20923;-69
2022/05/29 05:50:10;;;;;;;0.60;0.10;;;12.00;99.90;;;;;;5091894;28;20867;-70
2022/05/29 05:52:39;;;;;;;0.60;0.10;;;12.10;99.90;;;;;;5088307;28;20551;-70
2022/05/29 05:55:10;;;;;;;0.60;0.10;;;12.10;99.90;;;;;;5089744;28;20485;-71
2022/05/29 05:57:40;;;;;;;0.60;0.10;;;12.20;99.90;;;;;;5091123;28;20452;-71
2022/05/29 06:00:10;;;;;;;0.60;0.10;;;12.20;99.90;;;;;;5091268;28;20468;-71
2022/05/29 06:02:40;;;;;;;0.60;0.10;;;12.20;99.90;;;;;;5085533;28;20524;-71
2022/05/29 06:05:09;;;;;;;0.60;0.10;;;12.20;99.90;;;;;;5089287;28;20869;-70
2022/05/29 06:07:37;;;;;;;0.60;0.10;;;12.30;99.90;;;;;;5091664;28;20453;-71
2022/05/29 06:10:06;;;;;;;0.60;0.10;;;12.30;99.90;;;;;;5091956;28;20467;-71
2022/05/29 06:12:36;;;;;;;0.60;0.10;;;12.40;99.90;;;;;;5091870;28;20449;-71
2022/05/29 06:15:07;;;;;;;0.60;0.10;;;12.40;99.90;;;;;;5091442;28;20465;-70
2022/05/29 06:17:35;;;;;;;0.60;0.10;;;12.40;99.90;;;;;;5085698;28;20441;-72
2022/05/29 06:20:06;;;;;;;0.60;0.10;;;12.50;99.90;;;;;;5089786;28;20461;-70
2022/05/29 06:22:37;;;;;;;0.60;0.20;;;12.50;99.90;;;;;;5090851;28;20437;-73
2022/05/29 06:25:07;;;;;;;0.60;0.10;;;12.40;99.90;;;;;;5090941;28;20432;-70
2022/05/29 06:27:37;;;;;;;0.60;0.10;;;12.40;99.90;;;;;;5090212;28;20474;-70
2022/05/29 06:30:09;;;;;;;0.60;0.10;;;12.50;99.90;;;;;;5091937;28;20544;-70
2022/05/29 06:32:37;;;;;;;0.60;0.10;;;12.50;99.90;;;;;;5078276;28;20453;-70
2022/05/29 06:35:06;;;;;;;1.10;0.73;;;12.60;99.90;;;;;;5093022;28;20496;-71
2022/05/29 06:37:34;;;;;;;0.60;0.10;;;12.60;99.90;;;;;;5091550;28;20446;-69
2022/05/29 06:40:02;;;;;;;0.60;0.10;;;12.60;99.90;;;;;;5087449;28;20904;-69
2022/05/29 06:42:29;;;;;;;0.60;0.20;;;12.60;99.90;;;;;;5091420;28;20487;-70
2022/05/29 06:44:58;;;;;;;0.60;0.10;;;12.70;99.90;;;;;;5092183;28;20493;-71
2022/05/29 06:47:28;;;;;;;0.60;0.10;;;12.70;99.90;;;;;;5090432;28;21013;-73
2022/05/29 06:49:56;;;;;;;0.60;0.10;;;;;;;;;;5090041;28;20467;-71
2022/05/29 06:52:24;;;;;;;0.60;0.10;;;12.80;99.90;;;;;;5087858;28;20442;-71
2022/05/29 06:54:52;;;;;;;0.60;0.10;;;12.90;99.90;;;;;;5089558;28;20441;-71
2022/05/29 07:08:27;;;;;;;0.60;0.13;;;13.00;99.90;;;;;;5075497;28;20452;-71
2022/05/29 07:10:56;;;;;;;0.60;0.10;;;13.00;99.90;;;;;;5086480;28;20548;-71
2022/05/29 07:13:24;;;;;;;0.60;0.10;;;13.00;99.90;;;;;;5089339;28;20448;-69
2022/05/29 07:15:52;;;;;;;0.60;0.10;;;13.10;99.90;;;;;;5090351;28;20476;-70
2022/05/29 07:18:21;;;;;;;0.60;0.10;;;13.30;99.90;;;;;;5090221;28;20510;-70
2022/05/29 07:20:49;;;;;;;0.60;0.10;;;;;;;;;;5094099;28;20455;-70
2022/05/29 07:23:17;;;;;;;0.60;0.10;;;13.40;99.90;;;;;;5093993;28;20437;-69
2022/05/29 07:25:45;;;;;;;0.60;0.20;;;13.50;99.90;;;;;;5093497;28;20452;-72
2022/05/29 07:28:13;;;;;;;0.60;0.10;;;13.40;99.90;;;;;;5092868;28;20521;-70
2022/05/29 07:30:41;;;;;;;0.60;0.10;;;13.30;99.90;;;;;;5093333;28;20441;-70
2022/05/29 07:33:09;;;;;;;0.60;0.10;;;13.30;99.90;;;;;;5095025;28;20592;-69
2022/05/29 07:35:38;;;;;;;0.60;0.10;;;13.40;99.90;;;;;;5094334;28;20837;-71
2022/05/29 07:38:06;;;;;;;0.60;0.10;;;13.40;99.90;;;;;;5093664;28;20438;-72
2022/05/29 07:40:33;;;;;;;0.60;0.20;;;13.40;99.90;;;;;;5094059;28;20437;-72
2022/05/29 07:43:19;;;;;;;0.60;0.10;;;13.40;99.90;;;;;;5093913;28;20950;-71
2022/05/29 07:45:47;;;;;;;0.60;0.10;;;13.50;99.90;;;;;;5093337;28;20428;-72
2022/05/29 07:48:15;;;;;;;2.43;2.33;;;13.70;99.90;;;;;;5076998;28;20462;-72
2022/05/29 07:50:44;;;;;;;0.60;0.10;;;13.70;99.90;;;;;;5093378;28;20449;-72
2022/05/29 07:53:13;;;;;;;0.60;0.10;;;14.00;99.90;;;;;;5093409;28;20444;-71
2022/05/29 07:55:41;;;;;;;0.60;0.10;;;14.00;99.90;;;;;;5092951;28;20579;-73
2022/05/29 07:58:09;;;;;;;0.60;0.10;;;15.60;99.90;;;;;;5092777;28;20822;-71
2022/05/29 08:00:37;;;;;;;0.60;0.10;;;14.20;99.90;;;;;;5092570;28;20456;-71
2022/05/29 08:03:06;;;;;;;0.60;0.13;;;14.30;99.90;;;;;;5093223;28;20954;-71
2022/05/29 08:05:37;;;;;;;0.60;0.20;;;14.30;99.90;;;;;;5093153;28;20538;-71
2022/05/29 08:08:09;;;;;;;0.60;0.10;;;14.50;99.90;;;;;;5093394;28;20555;-70
2022/05/29 08:10:40;;;;;;;0.60;0.10;;;14.50;99.90;;;;;;5093292;28;20454;-71
2022/05/29 08:13:08;;;;;;;0.60;0.10;;;14.60;99.90;;;;;;5081120;28;20467;-71
2022/05/29 08:15:36;;;;;;;0.60;0.10;;;14.60;99.90;;;;;;5092511;28;20445;-72
2022/05/29 08:18:05;;;;;;;0.60;0.10;;;14.60;99.90;;;;;;5089643;28;20950;-70
2022/05/29 08:20:36;;;;;;;0.60;0.10;;;14.60;99.90;;;;;;5093533;28;20467;-70
2022/05/29 08:23:06;;;;;;;0.60;0.10;;;14.60;99.90;;;;;;5092567;28;20532;-71
2022/05/29 08:31:10;;;;;;;0.60;0.10;;;14.60;99.90;;;;;;5082350;28;20553;-71
2022/05/29 08:33:38;;;;;;;0.60;0.10;;;;;;;;;;5095711;28;20440;-70
2022/05/29 08:36:10;;;;;;;0.60;0.10;;;14.50;99.90;;;;;;5093221;28;20581;-70
2022/05/29 08:38:41;;;;;;;0.60;0.10;;;14.50;99.90;;;;;;5092862;28;20470;-71
2022/05/29 08:41:15;;;;;;;0.60;0.10;;;14.40;99.90;;;;;;5093671;28;20458;-72
2022/05/29 08:43:55;;;;;;;0.60;0.20;;;14.40;99.90;;;;;;5092876;28;20801;-71
2022/05/29 08:46:29;;;;;;;0.60;0.10;;;14.50;99.90;;;;;;5076973;28;20451;-73
2022/05/29 08:49:15;;;;;;;0.60;0.10;;;14.70;99.90;;;;;;5069816;23;20497;-71
2022/05/29 08:52:08;;;;;;;0.60;0.10;;;14.80;99.90;;;;;;5032255;28;20450;-71
2022/05/29 08:54:47;;;;;;;0.60;0.10;;;14.90;99.90;;;;;;5014232;28;20490;-72
2022/05/29 08:57:28;;;;;;;0.60;0.20;;;15.00;99.90;;;;;;5031292;28;20988;-71
2022/05/29 08:59:58;;;;;;;0.60;0.10;;;15.20;99.90;;;;;;5031974;28;20465;-73
2022/05/29 09:02:41;;;;;;;0.80;0.60;;;15.40;99.90;;;;;;5032551;28;20456;-71
2022/05/29 09:05:14;;;;;;;0.60;0.10;;;15.40;99.90;;;;;;5034558;28;20476;-73
2022/05/29 09:07:44;;;;;;;0.60;0.10;;;15.40;99.90;;;;;;5025824;28;20456;-70
2022/05/29 09:10:19;;;;;;;0.60;0.20;;;15.40;99.90;;;;;;5029486;28;20474;-71
2022/05/29 09:12:51;;;;;;;0.60;0.10;;;15.30;99.90;;;;;;5032780;28;20872;-72
2022/05/29 09:15:27;;;;;;;0.80;0.50;;;15.30;99.90;;;;;;5032464;28;20448;-71
2022/05/29 09:18:00;;;;;;;0.60;0.20;;;14.90;99.90;;;;;;5030372;28;20494;-71
2022/05/29 09:20:40;;;;;;;0.60;0.10;;;14.90;99.90;;;;;;5026704;28;20438;-72
2022/05/29 09:23:13;;;;;;;0.60;0.10;;;14.90;99.90;;;;;;5030554;28;20549;-72
2022/05/29 09:25:44;;;;;;;0.60;0.10;;;15.00;99.90;;;;;;5031175;28;20454;-72
2022/05/29 09:28:17;;;;;;;0.60;0.10;;;15.10;99.90;;;;;;5030563;28;20544;-75
2022/05/29 09:30:46;;;;;;;0.60;0.10;;;15.20;99.90;;;;;;5031782;28;20450;-71
2022/05/29 09:33:19;;;;;;;0.60;0.10;;;15.40;99.90;;;;;;5031877;28;20945;-73
2022/05/29 09:35:53;;;;;;;0.60;0.10;;;15.50;99.90;;;;;;5032931;28;20469;-73
2022/05/29 09:38:30;;;;;;;0.60;0.10;;;15.60;99.90;;;;;;5032442;28;20476;-72
2022/05/29 09:41:04;;;;;;;0.60;0.10;;;15.60;99.90;;;;;;5031857;28;20446;-73
2022/05/29 09:43:32;;;;;;;0.60;0.10;;;15.60;99.90;;;;;;5026268;28;20907;-72
2022/05/29 09:46:18;;;;;;;0.60;0.10;;;15.60;99.90;;;;;;5032338;28;20489;-72
2022/05/29 09:51:44;;;;;;;0.60;0.10;;;15.70;99.90;;;;;;5033915;28;20478;-74
2022/05/29 09:54:23;;;;;;;0.60;0.10;;;15.80;99.90;;;;;;5033137;28;20461;-74
2022/05/29 09:56:53;;;;;;;0.80;0.57;;;16.10;99.90;;;;;;5038078;28;21047;-72
2022/05/29 09:59:23;;;;;;;0.60;0.10;;;16.20;99.90;;;;;;5036961;28;20474;-71
2022/05/29 10:02:02;;;;;;;0.60;0.10;;;16.40;99.90;;;;;;5038583;28;20452;-73
2022/05/29 10:04:35;;;;;;;0.60;0.10;;;16.50;99.90;;;;;;5039408;28;20439;-74
2022/05/29 10:07:14;;;;;;;0.60;0.10;;;16.60;99.90;;;;;;5038424;28;20441;-73
2022/05/29 10:09:58;;;;;;;0.60;0.10;;;16.60;99.90;;;;;;5037248;28;20562;-72
2022/05/29 10:12:40;;;;;;;0.60;0.10;;;16.60;99.90;;;;;;5038482;28;20466;-72
2022/05/29 10:15:14;;;;;;;0.60;0.10;;;16.40;99.90;;;;;;5032274;28;20442;-73
2022/05/29 10:17:43;;;;;;;0.60;0.10;;;16.40;99.90;;;;;;5030201;28;20485;-71
2022/05/29 10:20:30;;;;;;;0.60;0.10;;;16.50;99.90;;;;;;5031265;28;20462;-74
2022/05/29 10:23:00;;;;;;;0.60;0.20;;;16.60;99.90;;;;;;5030812;28;20960;-72
2022/05/29 10:25:31;;;;;;;0.60;0.10;;;16.50;99.90;;;;;;5031762;28;20454;-73
2022/05/29 10:28:03;;;;;;;0.60;0.10;;;16.50;99.90;;;;;;5029918;28;20587;-73
2022/05/29 10:30:36;;;;;;;0.60;0.10;;;16.50;99.90;;;;;;5032150;28;20456;-71
2022/05/29 10:33:08;;;;;;;0.60;0.10;;;16.50;99.90;;;;;;5030033;28;20454;-72
2022/05/29 10:35:38;;;;;;;0.60;0.20;;;16.60;99.90;;;;;;5031987;28;20497;-71
2022/05/29 10:38:24;;;;;;;0.60;0.10;;;16.90;99.90;;;;;;5030603;28;21011;-72
2022/05/29 10:40:54;;;;;;;0.60;0.20;;;17.00;99.90;;;;;;5031678;28;20447;-72
2022/05/29 10:43:39;;;;;;;0.60;0.20;;;17.20;99.90;;;;;;5030716;28;20511;-73
2022/05/29 10:46:15;;;;;;;0.60;0.13;;;17.20;99.90;;;;;;5028377;28;20447;-71
2022/05/29 10:49:03;;;;;;;0.60;0.10;;;17.40;99.90;;;;;;5026329;28;20487;-72
2022/05/29 10:51:43;;;;;;;0.60;0.10;;;17.40;99.90;;;;;;5030822;28;20892;-73
2022/05/29 10:54:30;;;;;;;0.60;0.10;;;17.60;99.90;;;;;;5040691;28;20486;-71
2022/05/29 10:57:16;;;;;;;0.60;0.10;;;17.60;99.90;;;;;;5030411;28;20537;-73
2022/05/29 11:00:03;;;;;;;0.60;0.10;;;17.50;99.90;;;;;;5030338;28;20462;-71
2022/05/29 11:05:44;;;;;;;0.60;0.10;;;17.60;99.90;;;;;;5032352;28;20443;-72
2022/05/29 11:08:22;;;;;;;0.60;0.10;;;17.60;99.90;;;;;;5050754;28;20453;-72
2022/05/29 11:11:07;;;;;;;0.60;0.10;;;17.60;99.90;;;;;;5055063;28;20796;-72
2022/05/29 11:13:52;;;;;;;0.60;0.20;;;17.50;99.90;;;;;;5055698;28;20533;-72
2022/05/29 11:16:33;;;;;;;0.60;0.10;;;17.30;99.90;;;;;;5032854;28;20998;-73
2022/05/29 11:19:19;;;;;;;0.60;0.10;;;17.20;99.90;;;;;;5033740;28;20540;-73
2022/05/29 11:22:08;;;;;;;0.60;0.10;;;17.10;99.90;;;;;;5028775;28;20454;-72
2022/05/29 11:24:54;;;;;;;0.60;0.10;;;16.90;99.90;;;;;;5034301;28;21001;-72
2022/05/29 11:27:42;;;;;;;0.60;0.20;;;16.90;99.90;;;;;;5034457;28;20439;-71
2022/05/29 11:30:16;;;;;;;0.60;0.10;;;16.80;99.90;;;;;;5037748;28;20478;-70
2022/05/29 11:33:05;;;;;;;0.60;0.10;;;16.90;99.90;;;;;;5040064;28;20438;-72
2022/05/29 11:35:42;;;;;;;0.60;0.10;;;17.00;99.90;;;;;;5031683;28;20974;-72
2022/05/29 11:38:29;;;;;;;0.60;0.10;;;17.10;99.90;;;;;;5031525;28;20486;-71
2022/05/29 11:41:02;;;;;;;0.60;0.10;;;17.10;99.90;;;;;;5049483;22;20498;-71
2022/05/29 11:43:35;;;;;;;0.70;0.30;;;17.20;99.90;;;;;;5034063;28;20451;-70
2022/05/29 11:52:05;;;;;;;0.60;0.10;;;17.70;99.90;;;;;;5013706;28;20857;-70
2022/05/29 11:54:39;;;;;;;0.60;0.17;;;17.70;99.90;;;;;;5019363;28;20464;-70
2022/05/29 11:57:10;;;;;;;0.60;0.20;;;17.70;99.90;;;;;;5016622;28;20459;-71
2022/05/29 11:59:48;;;;;;;0.60;0.20;;;17.90;99.90;;;;;;5025121;28;20454;-69
2022/05/29 12:02:28;;;;;;;0.60;0.10;;;17.90;99.90;;;;;;5012009;28;20451;-70
2022/05/29 12:05:07;;;;;;;0.60;0.10;;;17.90;99.90;;;;;;5014432;28;20841;-70
2022/05/29 12:07:43;;;;;;;0.60;0.10;;;18.00;99.90;;;;;;5027264;28;20520;-70
2022/05/29 12:10:16;;;;;;;0.60;0.10;;;18.20;99.90;;;;;;5011682;28;20488;-70
2022/05/29 12:12:47;;;;;;;0.60;0.23;;;18.20;99.90;;;;;;5014057;28;20443;-69
2022/05/29 12:15:20;;;;;;;0.60;0.10;;;18.50;99.90;;;;;;5002943;28;20449;-70
2022/05/29 12:17:51;;;;;;;0.60;0.10;;;18.70;99.90;;;;;;5004008;28;20501;-71
2022/05/29 12:20:26;;;;;;;1.73;1.63;;;18.90;99.90;;;;;;5004876;28;20457;-70
2022/05/29 12:22:58;;;;;;;0.60;0.20;;;19.00;99.90;;;;;;5015879;28;20553;-69
2022/05/29 12:25:40;;;;;;;0.60;0.20;;;19.10;99.90;;;;;;5021569;28;20444;-70
2022/05/29 12:28:12;;;;;;;1.00;0.73;;;19.00;99.90;;;;;;5012913;28;20447;-69
2022/05/29 12:30:42;;;;;;;0.60;0.10;;;18.60;99.90;;;;;;5013252;28;20866;-74
2022/05/29 12:33:14;;;;;;;0.60;0.10;;;18.50;99.90;;;;;;5012833;28;20452;-70
2022/05/29 12:35:57;;;;;;;0.60;0.20;;;18.60;99.90;;;;;;5016452;28;20456;-69
2022/05/29 12:38:43;;;;;;;0.60;0.20;;;18.80;99.90;;;;;;5010763;28;20491;-69
2022/05/29 12:41:28;;;;;;;0.60;0.10;;;18.50;99.90;;;;;;5019594;28;20483;-69
2022/05/29 12:44:25;;;;;;;0.60;0.20;;;18.50;99.90;;;;;;5017725;28;20452;-68
2022/05/29 12:47:24;;;;;;;0.60;0.10;;;18.60;99.90;;;;;;5011943;28;20547;-68
2022/05/29 12:50:47;;;;;;;0.60;0.20;;;19.00;99.90;;;;;;5014167;28;20468;-69
2022/05/29 12:53:54;;;;;;;0.60;0.10;;;19.10;99.90;;;;;;5012974;28;20448;-70
2022/05/29 12:56:56;;;;;;;0.60;0.10;;;19.20;99.90;;;;;;4995878;28;20444;-70
2022/05/29 12:59:51;;;;;;;0.60;0.10;;;19.30;99.90;;;;;;5011475;28;20490;-68
2022/05/29 13:02:35;;;;;;;0.60;0.10;;;19.30;99.90;;;;;;4980238;28;20795;-71
2022/05/29 13:05:54;;;;;;;0.60;0.10;;;19.30;99.90;;;;;;5008888;28;20445;-72
2022/05/29 13:08:48;;;;;;;0.60;0.10;;;19.20;99.90;;;;;;4925511;28;20472;-68
2022/05/29 13:11:23;;;;;;;0.60;0.10;;;19.10;99.90;;;;;;4973529;28;20470;-70
2022/05/29 13:13:58;;;;;;;0.60;0.10;;;19.00;99.90;;;;;;4995953;28;20445;-67
2022/05/29 13:16:29;;;;;;;0.60;0.10;;;18.90;99.90;;;;;;5009332;28;20442;-73
2022/05/29 13:21:56;;;;;;;0.60;0.10;;;18.70;99.90;;;;;;5007106;28;20484;-68
2022/05/29 13:24:25;;;;;;;0.60;0.13;;;18.80;99.90;;;;;;5003471;28;20489;-71
2022/05/29 13:27:33;;;;;;;0.60;0.20;;;19.00;99.90;;;;;;5016858;28;20451;-71
2022/05/29 13:30:05;;;;;;;0.60;0.10;;;19.10;99.90;;;;;;5009018;28;20485;-67
2022/05/29 13:32:37;;;;;;;0.60;0.10;;;19.10;99.90;;;;;;5006890;28;20518;-69
2022/05/29 13:35:32;;;;;;;0.60;0.10;;;19.10;99.90;;;;;;5003872;28;20452;-68
2022/05/29 13:37:59;;;;;;;0.60;0.10;;;19.00;99.90;;;;;;5007053;28;20476;-70
2022/05/29 13:40:46;;;;;;;0.60;0.10;;;18.90;99.90;;;;;;5011302;28;20470;-67
2022/05/29 13:43:37;;;;;;;0.60;0.10;;;18.90;99.90;;;;;;5005441;28;20449;-71
2022/05/29 13:46:18;;;;;;;0.60;0.17;;;18.80;99.90;;;;;;5010835;28;20440;-67
2022/05/29 13:49:06;;;;;;;0.60;0.10;;;18.80;99.90;;;;;;5011759;28;20471;-70
2022/05/29 13:51:41;;;;;;;0.60;0.10;;;18.70;99.90;;;;;;5006040;28;20452;-69
2022/05/29 13:54:21;;;;;;;0.60;0.10;;;18.70;99.90;;;;;;5010703;28;20935;-69
2022/05/29 13:57:02;;;;;;;0.60;0.10;;;18.70;99.90;;;;;;5005874;28;20969;-68
2022/05/29 14:05:29;;;;;;;0.60;0.10;;;18.80;99.90;;;;;;5010444;28;20854;-69
2022/05/29 14:08:24;;;;;;;0.60;0.10;;;19.10;99.90;;;;;;5002004;28;20437;-69